sensor_id;sensor_type;location;lat;lon;timestamp;pressure;altitude;pressure_sealevel;temperature;humidity
70103;BME280;57470;50.034;15.256;2023-02-20T00:00:46;100236.84;;;2.02;97.50
70103;BME280;57470;50.034;15.256;2023-02-20T00:03:13;100239.16;;;2.15;96.05
70103;BME280;57470;50.034;15.256;2023-02-20T00:05:39;100239.28;;;2.09;95.66
70103;BME280;57470;50.034;15.256;2023-02-20T00:08:05;100229.63;;;2.11;96.15
70103;BME280;57470;50.034;15.256;2023-02-20T00:10:30;100239.34;;;2.06;96.10
70103;BME280;57470;50.034;15.256;2023-02-20T00:12:55;100236.66;;;2.11;96.32
70103;BME280;57470;50.034;15.256;2023-02-20T00:15:21;100235.72;;;2.13;96.47
70103;BME280;57470;50.034;15.256;2023-02-20T00:17:48;100228.38;;;2.29;96.32
70103;BME280;57470;50.034;15.256;2023-02-20T00:20:19;100220.75;;;2.17;96.00
70103;BME280;57470;50.034;15.256;2023-02-20T00:22:45;100215.44;;;2.20;96.07
70103;BME280;57470;50.034;15.256;2023-02-20T00:25:11;100211.97;;;2.19;96.33
70103;BME280;57470;50.034;15.256;2023-02-20T00:27:36;100214.47;;;2.24;95.71
70103;BME280;57470;50.034;15.256;2023-02-20T00:30:02;100215.72;;;2.08;96.47
70103;BME280;57470;50.034;15.256;2023-02-20T00:32:28;100202.34;;;2.18;96.58
70103;BME280;57470;50.034;15.256;2023-02-20T00:34:53;100208.19;;;2.31;96.02
70103;BME280;57470;50.034;15.256;2023-02-20T00:37:18;100196.91;;;2.28;96.32
70103;BME280;57470;50.034;15.256;2023-02-20T00:39:44;100192.63;;;2.23;96.74
70103;BME280;57470;50.034;15.256;2023-02-20T00:42:09;100187.16;;;2.33;96.44
70103;BME280;57470;50.034;15.256;2023-02-20T00:44:34;100178.34;;;2.35;96.73
70103;BME280;57470;50.034;15.256;2023-02-20T00:47:00;100183.69;;;2.32;96.67
70103;BME280;57470;50.034;15.256;2023-02-20T00:49:25;100173.09;;;2.35;96.39
70103;BME280;57470;50.034;15.256;2023-02-20T00:51:51;100171.09;;;2.45;96.31
70103;BME280;57470;50.034;15.256;2023-02-20T00:54:16;100169.34;;;2.45;96.93
70103;BME280;57470;50.034;15.256;2023-02-20T00:56:41;100176.31;;;2.46;96.47
70103;BME280;57470;50.034;15.256;2023-02-20T00:59:07;100177.13;;;2.50;96.14
70103;BME280;57470;50.034;15.256;2023-02-20T01:01:32;100180.41;;;2.58;96.22
70103;BME280;57470;50.034;15.256;2023-02-20T01:03:58;100177.75;;;2.59;96.20
70103;BME280;57470;50.034;15.256;2023-02-20T01:06:23;100170.69;;;2.61;95.70
70103;BME280;57470;50.034;15.256;2023-02-20T01:08:49;100172.25;;;2.69;95.98
70103;BME280;57470;50.034;15.256;2023-02-20T01:11:15;100173.41;;;2.58;96.27
70103;BME280;57470;50.034;15.256;2023-02-20T01:13:40;100161.84;;;2.66;96.29
70103;BME280;57470;50.034;15.256;2023-02-20T01:16:06;100171.66;;;2.59;96.94
70103;BME280;57470;50.034;15.256;2023-02-20T01:18:32;100174.06;;;2.67;96.98
70103;BME280;57470;50.034;15.256;2023-02-20T01:20:57;100174.63;;;2.78;96.55
70103;BME280;57470;50.034;15.256;2023-02-20T01:23:22;100172.75;;;2.84;96.29
70103;BME280;57470;50.034;15.256;2023-02-20T01:25:48;100171.94;;;2.81;95.40
70103;BME280;57470;50.034;15.256;2023-02-20T01:28:13;100182.38;;;2.84;95.97
70103;BME280;57470;50.034;15.256;2023-02-20T01:30:39;100178.47;;;2.66;96.68
70103;BME280;57470;50.034;15.256;2023-02-20T01:33:04;100174.78;;;2.73;96.82
70103;BME280;57470;50.034;15.256;2023-02-20T01:35:29;100170.91;;;2.86;96.29
70103;BME280;57470;50.034;15.256;2023-02-20T01:37:57;100155.50;;;2.74;96.99
70103;BME280;57470;50.034;15.256;2023-02-20T01:40:24;100147.09;;;2.60;97.43
70103;BME280;57470;50.034;15.256;2023-02-20T01:42:49;100141.09;;;2.55;97.81
70103;BME280;57470;50.034;15.256;2023-02-20T01:45:18;100129.53;;;2.62;97.48
70103;BME280;57470;50.034;15.256;2023-02-20T01:47:53;100130.13;;;2.73;97.79
70103;BME280;57470;50.034;15.256;2023-02-20T01:50:41;100129.28;;;2.71;97.46
70103;BME280;57470;50.034;15.256;2023-02-20T01:53:16;100127.78;;;2.62;98.64
70103;BME280;57470;50.034;15.256;2023-02-20T01:55:46;100127.38;;;2.44;99.22
70103;BME280;57470;50.034;15.256;2023-02-20T01:58:18;100123.97;;;2.74;98.28
70103;BME280;57470;50.034;15.256;2023-02-20T02:00:44;100121.78;;;2.57;96.95
70103;BME280;57470;50.034;15.256;2023-02-20T02:03:19;100128.84;;;2.55;97.08
70103;BME280;57470;50.034;15.256;2023-02-20T02:05:48;100119.91;;;2.27;98.33
70103;BME280;57470;50.034;15.256;2023-02-20T02:08:17;100107.28;;;2.07;100.00
70103;BME280;57470;50.034;15.256;2023-02-20T02:11:00;100107.28;;;2.07;100.00
70103;BME280;57470;50.034;15.256;2023-02-20T02:13:27;100102.47;;;2.24;99.66
70103;BME280;57470;50.034;15.256;2023-02-20T02:38:32;100074.63;;;2.53;97.27
70103;BME280;57470;50.034;15.256;2023-02-20T02:41:14;100069.31;;;2.56;98.40
70103;BME280;57470;50.034;15.256;2023-02-20T02:46:32;100055.31;;;2.55;98.54
70103;BME280;57470;50.034;15.256;2023-02-20T02:49:25;100042.56;;;2.74;97.65
70103;BME280;57470;50.034;15.256;2023-02-20T02:51:56;100030.88;;;2.84;97.28
70103;BME280;57470;50.034;15.256;2023-02-20T02:54:26;100025.03;;;2.75;96.99
70103;BME280;57470;50.034;15.256;2023-02-20T02:57:39;100022.09;;;2.85;97.38
70103;BME280;57470;50.034;15.256;2023-02-20T02:59:41;100026.50;;;2.85;97.07
70103;BME280;57470;50.034;15.256;2023-02-20T03:02:13;100030.00;;;2.85;97.26
70103;BME280;57470;50.034;15.256;2023-02-20T03:04:42;100032.28;;;2.96;98.05
70103;BME280;57470;50.034;15.256;2023-02-20T03:07:14;100036.47;;;2.72;98.40
70103;BME280;57470;50.034;15.256;2023-02-20T03:09:56;100030.00;;;2.85;97.86
70103;BME280;57470;50.034;15.256;2023-02-20T03:12:26;100033.06;;;2.99;97.27
70103;BME280;57470;50.034;15.256;2023-02-20T03:15:28;100035.47;;;3.07;97.06
70103;BME280;57470;50.034;15.256;2023-02-20T03:18:23;100029.19;;;3.13;95.72
70103;BME280;57470;50.034;15.256;2023-02-20T03:20:58;100022.25;;;3.10;95.88
70103;BME280;57470;50.034;15.256;2023-02-20T03:23:31;100017.25;;;2.70;95.80
70103;BME280;57470;50.034;15.256;2023-02-20T03:26:04;100011.44;;;2.90;96.19
70103;BME280;57470;50.034;15.256;2023-02-20T03:28:45;100007.31;;;3.12;96.60
70103;BME280;57470;50.034;15.256;2023-02-20T03:31:43;100002.28;;;2.74;97.02
70103;BME280;57470;50.034;15.256;2023-02-20T03:34:19;100001.50;;;2.70;97.62
70103;BME280;57470;50.034;15.256;2023-02-20T03:37:13;100004.50;;;2.87;97.67
70103;BME280;57470;50.034;15.256;2023-02-20T03:40:04;100001.44;;;2.73;97.08
70103;BME280;57470;50.034;15.256;2023-02-20T03:42:53;100002.50;;;2.66;97.95
70103;BME280;57470;50.034;15.256;2023-02-20T03:45:41;100006.00;;;2.96;97.99
70103;BME280;57470;50.034;15.256;2023-02-20T03:48:19;99999.78;;;3.00;97.84
70103;BME280;57470;50.034;15.256;2023-02-20T03:50:46;100010.09;;;3.06;97.66
70103;BME280;57470;50.034;15.256;2023-02-20T03:53:12;100016.69;;;3.21;97.73
70103;BME280;57470;50.034;15.256;2023-02-20T03:55:38;100025.44;;;3.21;97.96
70103;BME280;57470;50.034;15.256;2023-02-20T03:58:06;100008.53;;;3.30;98.48
70103;BME280;57470;50.034;15.256;2023-02-20T04:00:39;100018.94;;;3.04;99.79
70103;BME280;57470;50.034;15.256;2023-02-20T04:03:11;100009.50;;;2.96;99.59
70103;BME280;57470;50.034;15.256;2023-02-20T04:05:44;100011.50;;;3.18;99.00
70103;BME280;57470;50.034;15.256;2023-02-20T04:08:28;100007.38;;;3.09;98.52
70103;BME280;57470;50.034;15.256;2023-02-20T04:11:10;100005.69;;;3.36;98.13
70103;BME280;57470;50.034;15.256;2023-02-20T04:13:38;100009.81;;;3.45;97.55
70103;BME280;57470;50.034;15.256;2023-02-20T04:16:04;99996.66;;;3.45;97.90
70103;BME280;57470;50.034;15.256;2023-02-20T04:18:30;100009.53;;;3.54;97.41
70103;BME280;57470;50.034;15.256;2023-02-20T04:20:58;100009.75;;;3.46;97.92
70103;BME280;57470;50.034;15.256;2023-02-20T04:23:25;100005.13;;;3.54;97.52
70103;BME280;57470;50.034;15.256;2023-02-20T04:25:55;99994.41;;;3.60;97.65
70103;BME280;57470;50.034;15.256;2023-02-20T04:28:22;99996.59;;;2.89;100.00
70103;BME280;57470;50.034;15.256;2023-02-20T04:30:48;99995.19;;;3.07;100.00
70103;BME280;57470;50.034;15.256;2023-02-20T04:33:14;99989.66;;;3.16;100.00
70103;BME280;57470;50.034;15.256;2023-02-20T04:35:41;99993.31;;;3.12;100.00
70103;BME280;57470;50.034;15.256;2023-02-20T04:38:07;99985.34;;;3.13;100.00
70103;BME280;57470;50.034;15.256;2023-02-20T04:40:33;99989.53;;;2.91;100.00
70103;BME280;57470;50.034;15.256;2023-02-20T04:42:59;99983.19;;;3.27;100.00
70103;BME280;57470;50.034;15.256;2023-02-20T04:45:24;99986.63;;;3.29;100.00
70103;BME280;57470;50.034;15.256;2023-02-20T04:47:49;99984.50;;;3.40;100.00
70103;BME280;57470;50.034;15.256;2023-02-20T04:50:28;99981.78;;;3.44;99.77
70103;BME280;57470;50.034;15.256;2023-02-20T04:52:54;99986.97;;;3.47;99.22
70103;BME280;57470;50.034;15.256;2023-02-20T04:55:19;99981.88;;;3.40;99.30
70103;BME280;57470;50.034;15.256;2023-02-20T04:57:46;99979.59;;;3.30;99.97
70103;BME280;57470;50.034;15.256;2023-02-20T05:00:14;99991.16;;;3.52;99.18
70103;BME280;57470;50.034;15.256;2023-02-20T05:02:40;99974.44;;;3.27;100.00
70103;BME280;57470;50.034;15.256;2023-02-20T05:05:07;99982.59;;;3.46;100.00
70103;BME280;57470;50.034;15.256;2023-02-20T05:07:39;99983.50;;;3.45;100.00
70103;BME280;57470;50.034;15.256;2023-02-20T05:10:04;99978.06;;;3.51;100.00
70103;BME280;57470;50.034;15.256;2023-02-20T05:12:30;99972.09;;;3.46;100.00
70103;BME280;57470;50.034;15.256;2023-02-20T05:14:55;99981.16;;;3.35;100.00
70103;BME280;57470;50.034;15.256;2023-02-20T05:17:20;99985.97;;;3.49;100.00
70103;BME280;57470;50.034;15.256;2023-02-20T05:19:46;99986.03;;;3.20;100.00
70103;BME280;57470;50.034;15.256;2023-02-20T05:22:11;99993.09;;;3.47;100.00
70103;BME280;57470;50.034;15.256;2023-02-20T05:24:48;99981.25;;;3.32;100.00
70103;BME280;57470;50.034;15.256;2023-02-20T05:27:15;99988.19;;;3.35;100.00
70103;BME280;57470;50.034;15.256;2023-02-20T05:29:51;99999.63;;;3.34;100.00
70103;BME280;57470;50.034;15.256;2023-02-20T05:32:18;99997.28;;;3.53;100.00
70103;BME280;57470;50.034;15.256;2023-02-20T05:34:44;99997.94;;;3.59;100.00
70103;BME280;57470;50.034;15.256;2023-02-20T05:37:11;99995.13;;;3.37;100.00
70103;BME280;57470;50.034;15.256;2023-02-20T05:39:36;99999.72;;;3.31;100.00
70103;BME280;57470;50.034;15.256;2023-02-20T05:42:02;100004.31;;;3.52;100.00
70103;BME280;57470;50.034;15.256;2023-02-20T05:44:28;100000.78;;;3.53;100.00
70103;BME280;57470;50.034;15.256;2023-02-20T05:46:54;100007.75;;;3.54;100.00
70103;BME280;57470;50.034;15.256;2023-02-20T05:49:20;100024.84;;;3.67;100.00
70103;BME280;57470;50.034;15.256;2023-02-20T05:51:45;100013.13;;;3.77;100.00
70103;BME280;57470;50.034;15.256;2023-02-20T05:54:11;100015.97;;;3.71;100.00
70103;BME280;57470;50.034;15.256;2023-02-20T05:56:41;100025.25;;;3.83;100.00
70103;BME280;57470;50.034;15.256;2023-02-20T05:59:06;100017.19;;;3.88;100.00
70103;BME280;57470;50.034;15.256;2023-02-20T06:01:32;100003.16;;;3.87;100.00
70103;BME280;57470;50.034;15.256;2023-02-20T06:04:01;100001.69;;;4.05;100.00
70103;BME280;57470;50.034;15.256;2023-02-20T06:06:34;100000.78;;;3.80;100.00
70103;BME280;57470;50.034;15.256;2023-02-20T06:09:00;100001.31;;;3.91;100.00
70103;BME280;57470;50.034;15.256;2023-02-20T06:11:25;100000.16;;;3.99;100.00
70103;BME280;57470;50.034;15.256;2023-02-20T06:13:51;99990.34;;;4.03;100.00
70103;BME280;57470;50.034;15.256;2023-02-20T06:16:24;99974.38;;;4.09;100.00
70103;BME280;57470;50.034;15.256;2023-02-20T06:18:50;99986.72;;;4.07;100.00
70103;BME280;57470;50.034;15.256;2023-02-20T06:21:15;99992.94;;;4.04;100.00
70103;BME280;57470;50.034;15.256;2023-02-20T06:23:43;99994.31;;;3.90;100.00
70103;BME280;57470;50.034;15.256;2023-02-20T06:26:11;99996.19;;;3.86;100.00
70103;BME280;57470;50.034;15.256;2023-02-20T06:28:37;100005.75;;;3.89;100.00
70103;BME280;57470;50.034;15.256;2023-02-20T06:31:05;100015.03;;;4.00;100.00
70103;BME280;57470;50.034;15.256;2023-02-20T06:33:31;99996.38;;;4.06;100.00
70103;BME280;57470;50.034;15.256;2023-02-20T06:35:56;100009.34;;;3.58;100.00
70103;BME280;57470;50.034;15.256;2023-02-20T06:38:22;100008.84;;;3.47;100.00
70103;BME280;57470;50.034;15.256;2023-02-20T06:40:48;99994.03;;;3.99;100.00
70103;BME280;57470;50.034;15.256;2023-02-20T06:43:13;99994.63;;;4.07;100.00
70103;BME280;57470;50.034;15.256;2023-02-20T06:45:39;99996.03;;;4.17;100.00
70103;BME280;57470;50.034;15.256;2023-02-20T06:48:04;99992.13;;;4.29;100.00
70103;BME280;57470;50.034;15.256;2023-02-20T06:50:29;99984.94;;;4.07;100.00
70103;BME280;57470;50.034;15.256;2023-02-20T06:52:55;99979.81;;;4.29;100.00
70103;BME280;57470;50.034;15.256;2023-02-20T06:55:20;99989.91;;;4.41;100.00
70103;BME280;57470;50.034;15.256;2023-02-20T06:57:46;99989.41;;;4.30;100.00
70103;BME280;57470;50.034;15.256;2023-02-20T07:00:12;99978.22;;;4.48;100.00
70103;BME280;57470;50.034;15.256;2023-02-20T07:02:37;99981.34;;;4.60;100.00
70103;BME280;57470;50.034;15.256;2023-02-20T07:05:04;99979.09;;;4.49;100.00
70103;BME280;57470;50.034;15.256;2023-02-20T07:07:29;99977.44;;;4.46;100.00
70103;BME280;57470;50.034;15.256;2023-02-20T07:09:55;99978.94;;;4.53;100.00
70103;BME280;57470;50.034;15.256;2023-02-20T07:12:20;99978.38;;;4.45;100.00
70103;BME280;57470;50.034;15.256;2023-02-20T07:14:46;99967.59;;;4.51;100.00
70103;BME280;57470;50.034;15.256;2023-02-20T07:17:11;99975.44;;;4.53;100.00
70103;BME280;57470;50.034;15.256;2023-02-20T07:19:37;99979.09;;;4.74;100.00
70103;BME280;57470;50.034;15.256;2023-02-20T07:22:02;99982.16;;;4.85;100.00
70103;BME280;57470;50.034;15.256;2023-02-20T07:24:27;99982.06;;;4.88;100.00
70103;BME280;57470;50.034;15.256;2023-02-20T07:26:53;99986.53;;;5.09;100.00
70103;BME280;57470;50.034;15.256;2023-02-20T07:29:18;99989.25;;;5.29;100.00
70103;BME280;57470;50.034;15.256;2023-02-20T07:31:44;99981.59;;;5.23;100.00
70103;BME280;57470;50.034;15.256;2023-02-20T07:34:09;99976.19;;;5.48;100.00
70103;BME280;57470;50.034;15.256;2023-02-20T07:36:35;99972.28;;;5.80;100.00
70103;BME280;57470;50.034;15.256;2023-02-20T07:39:02;99969.28;;;5.89;100.00
70103;BME280;57470;50.034;15.256;2023-02-20T07:41:29;99955.78;;;6.17;100.00
70103;BME280;57470;50.034;15.256;2023-02-20T07:44:00;99955.66;;;6.40;100.00
70103;BME280;57470;50.034;15.256;2023-02-20T07:46:26;99959.19;;;6.60;100.00
70103;BME280;57470;50.034;15.256;2023-02-20T07:48:51;99949.84;;;6.71;100.00
70103;BME280;57470;50.034;15.256;2023-02-20T07:51:17;99946.16;;;6.94;100.00
70103;BME280;57470;50.034;15.256;2023-02-20T07:53:50;99954.28;;;6.90;99.96
70103;BME280;57470;50.034;15.256;2023-02-20T07:56:17;99955.03;;;7.12;99.03
70103;BME280;57470;50.034;15.256;2023-02-20T07:58:43;99958.31;;;7.17;98.92
70103;BME280;57470;50.034;15.256;2023-02-20T08:01:09;99960.16;;;7.34;97.38
70103;BME280;57470;50.034;15.256;2023-02-20T08:03:34;99948.00;;;7.48;96.47
70103;BME280;57470;50.034;15.256;2023-02-20T08:06:00;99944.19;;;7.54;96.89
70103;BME280;57470;50.034;15.256;2023-02-20T08:08:25;99951.91;;;7.59;95.69
70103;BME280;57470;50.034;15.256;2023-02-20T08:10:51;99947.38;;;7.61;95.28
70103;BME280;57470;50.034;15.256;2023-02-20T08:13:17;99947.53;;;7.58;94.72
70103;BME280;57470;50.034;15.256;2023-02-20T08:15:43;99934.94;;;7.63;95.08
70103;BME280;57470;50.034;15.256;2023-02-20T08:18:13;99939.78;;;7.72;93.83
70103;BME280;57470;50.034;15.256;2023-02-20T08:20:38;99928.59;;;7.84;93.69
70103;BME280;57470;50.034;15.256;2023-02-20T08:23:04;99916.53;;;7.96;93.65
70103;BME280;57470;50.034;15.256;2023-02-20T08:25:30;99921.56;;;8.00;92.26
70103;BME280;57470;50.034;15.256;2023-02-20T08:27:57;99922.81;;;8.27;91.91
70103;BME280;57470;50.034;15.256;2023-02-20T08:30:25;99911.97;;;8.32;91.26
70103;BME280;57470;50.034;15.256;2023-02-20T08:32:52;99902.25;;;8.50;90.68
70103;BME280;57470;50.034;15.256;2023-02-20T08:35:17;99893.28;;;8.35;89.35
70103;BME280;57470;50.034;15.256;2023-02-20T08:37:43;99893.00;;;8.57;89.15
70103;BME280;57470;50.034;15.256;2023-02-20T08:40:10;99888.88;;;8.84;88.86
70103;BME280;57470;50.034;15.256;2023-02-20T08:42:35;99884.56;;;8.82;87.77
70103;BME280;57470;50.034;15.256;2023-02-20T08:45:03;99886.78;;;8.74;87.53
70103;BME280;57470;50.034;15.256;2023-02-20T08:47:29;99883.28;;;8.89;87.02
70103;BME280;57470;50.034;15.256;2023-02-20T08:49:54;99887.44;;;9.10;86.96
70103;BME280;57470;50.034;15.256;2023-02-20T08:52:19;99882.28;;;9.38;86.36
70103;BME280;57470;50.034;15.256;2023-02-20T08:54:46;99886.72;;;9.38;85.55
70103;BME280;57470;50.034;15.256;2023-02-20T08:57:13;99873.34;;;9.39;85.20
70103;BME280;57470;50.034;15.256;2023-02-20T08:59:38;99861.03;;;9.38;85.99
70103;BME280;57470;50.034;15.256;2023-02-20T09:02:05;99852.09;;;9.39;85.08
70103;BME280;57470;50.034;15.256;2023-02-20T09:04:31;99858.78;;;9.47;84.83
70103;BME280;57470;50.034;15.256;2023-02-20T09:06:56;99847.34;;;9.60;85.18
70103;BME280;57470;50.034;15.256;2023-02-20T09:09:22;99837.34;;;9.65;83.76
70103;BME280;57470;50.034;15.256;2023-02-20T09:11:47;99836.78;;;9.45;83.87
70103;BME280;57470;50.034;15.256;2023-02-20T09:14:12;99836.47;;;9.65;83.70
70103;BME280;57470;50.034;15.256;2023-02-20T09:16:38;99834.06;;;9.60;83.58
70103;BME280;57470;50.034;15.256;2023-02-20T09:19:07;99837.94;;;9.85;82.85
70103;BME280;57470;50.034;15.256;2023-02-20T09:21:33;99836.34;;;9.96;82.60
70103;BME280;57470;50.034;15.256;2023-02-20T09:23:58;99843.84;;;10.04;82.07
70103;BME280;57470;50.034;15.256;2023-02-20T09:26:24;99837.59;;;9.91;82.07
70103;BME280;57470;50.034;15.256;2023-02-20T09:28:49;99839.63;;;9.86;82.61
70103;BME280;57470;50.034;15.256;2023-02-20T09:31:14;99833.69;;;9.82;81.44
70103;BME280;57470;50.034;15.256;2023-02-20T09:33:44;99830.38;;;9.93;81.93
70103;BME280;57470;50.034;15.256;2023-02-20T09:36:09;99819.69;;;10.23;81.45
70103;BME280;57470;50.034;15.256;2023-02-20T09:38:34;99821.22;;;10.41;80.06
70103;BME280;57470;50.034;15.256;2023-02-20T09:41:00;99823.03;;;10.55;80.06
70103;BME280;57470;50.034;15.256;2023-02-20T09:46:17;99829.47;;;10.65;79.30
70103;BME280;57470;50.034;15.256;2023-02-20T09:51:27;99811.81;;;11.05;78.60
70103;BME280;57470;50.034;15.256;2023-02-20T09:54:17;99814.03;;;10.84;79.22
70103;BME280;57470;50.034;15.256;2023-02-20T09:56:49;99803.88;;;10.90;79.20
70103;BME280;57470;50.034;15.256;2023-02-20T09:59:37;99795.31;;;10.85;79.24
70103;BME280;57470;50.034;15.256;2023-02-20T10:02:23;99794.72;;;10.95;79.31
70103;BME280;57470;50.034;15.256;2023-02-20T10:04:54;99788.69;;;10.78;78.75
70103;BME280;57470;50.034;15.256;2023-02-20T10:07:25;99778.50;;;10.85;78.46
70103;BME280;57470;50.034;15.256;2023-02-20T10:09:51;99768.56;;;11.01;77.88
70103;BME280;57470;50.034;15.256;2023-02-20T10:14:58;99780.03;;;11.16;77.71
70103;BME280;57470;50.034;15.256;2023-02-20T10:20:17;99775.41;;;11.05;77.31
70103;BME280;57470;50.034;15.256;2023-02-20T10:25:32;99777.03;;;11.20;77.24
70103;BME280;57470;50.034;15.256;2023-02-20T10:28:17;99762.50;;;11.39;76.83
70103;BME280;57470;50.034;15.256;2023-02-20T10:31:08;99758.97;;;11.25;75.48
70103;BME280;57470;50.034;15.256;2023-02-20T10:33:57;99774.72;;;11.28;77.18
70103;BME280;57470;50.034;15.256;2023-02-20T10:36:24;99765.25;;;11.24;75.50
70103;BME280;57470;50.034;15.256;2023-02-20T10:39:07;99767.25;;;10.94;75.81
70103;BME280;57470;50.034;15.256;2023-02-20T10:41:47;99763.03;;;11.04;76.93
70103;BME280;57470;50.034;15.256;2023-02-20T10:44:25;99755.81;;;11.06;76.96
70103;BME280;57470;50.034;15.256;2023-02-20T10:47:01;99741.38;;;11.23;77.19
70103;BME280;57470;50.034;15.256;2023-02-20T10:49:37;99739.78;;;11.20;77.71
70103;BME280;57470;50.034;15.256;2023-02-20T10:52:10;99730.06;;;11.07;77.74
70103;BME280;57470;50.034;15.256;2023-02-20T10:54:39;99725.16;;;11.13;78.48
70103;BME280;57470;50.034;15.256;2023-02-20T10:57:21;99728.94;;;11.23;77.14
70103;BME280;57470;50.034;15.256;2023-02-20T11:00:02;99708.94;;;11.04;76.84
70103;BME280;57470;50.034;15.256;2023-02-20T11:02:35;99709.44;;;11.23;76.92
70103;BME280;57470;50.034;15.256;2023-02-20T11:05:11;99696.84;;;11.12;76.72
70103;BME280;57470;50.034;15.256;2023-02-20T11:07:37;99689.50;;;11.16;76.12
70103;BME280;57470;50.034;15.256;2023-02-20T11:10:03;99680.03;;;11.24;76.86
70103;BME280;57470;50.034;15.256;2023-02-20T11:15:29;99689.84;;;11.37;75.56
70103;BME280;57470;50.034;15.256;2023-02-20T11:17:57;99683.88;;;11.46;75.73
70103;BME280;57470;50.034;15.256;2023-02-20T11:23:06;99677.53;;;11.61;74.31
70103;BME280;57470;50.034;15.256;2023-02-20T11:25:36;99669.81;;;11.31;73.88
70103;BME280;57470;50.034;15.256;2023-02-20T11:28:23;99664.75;;;11.53;73.30
70103;BME280;57470;50.034;15.256;2023-02-20T11:30:59;99666.22;;;11.45;74.33
70103;BME280;57470;50.034;15.256;2023-02-20T11:33:29;99665.91;;;11.62;73.92
70103;BME280;57470;50.034;15.256;2023-02-20T11:35:56;99666.88;;;11.61;73.91
70103;BME280;57470;50.034;15.256;2023-02-20T11:38:26;99656.19;;;11.74;73.15
70103;BME280;57470;50.034;15.256;2023-02-20T11:43:24;99659.19;;;11.56;73.73
70103;BME280;57470;50.034;15.256;2023-02-20T11:46:06;99660.69;;;11.60;72.42
70103;BME280;57470;50.034;15.256;2023-02-20T11:48:32;99643.84;;;11.60;73.44
70103;BME280;57470;50.034;15.256;2023-02-20T11:50:58;99639.88;;;11.27;73.35
70103;BME280;57470;50.034;15.256;2023-02-20T11:53:26;99631.59;;;11.32;72.94
70103;BME280;57470;50.034;15.256;2023-02-20T11:56:12;99629.34;;;11.39;73.74
70103;BME280;57470;50.034;15.256;2023-02-20T11:58:38;99628.47;;;11.63;73.33
70103;BME280;57470;50.034;15.256;2023-02-20T12:01:04;99615.19;;;11.76;72.65
70103;BME280;57470;50.034;15.256;2023-02-20T12:03:32;99610.91;;;11.86;72.51
70103;BME280;57470;50.034;15.256;2023-02-20T12:08:50;99582.16;;;12.15;71.32
70103;BME280;57470;50.034;15.256;2023-02-20T12:11:19;99577.66;;;12.16;71.32
70103;BME280;57470;50.034;15.256;2023-02-20T12:13:47;99573.13;;;11.92;72.25
70103;BME280;57470;50.034;15.256;2023-02-20T12:19:17;99569.22;;;11.85;71.80
70103;BME280;57470;50.034;15.256;2023-02-20T12:27:33;99573.31;;;12.02;71.79
70103;BME280;57470;50.034;15.256;2023-02-20T12:41:23;99555.53;;;12.02;70.88
70103;BME280;57470;50.034;15.256;2023-02-20T12:44:13;99553.59;;;12.05;71.92
70103;BME280;57470;50.034;15.256;2023-02-20T13:01:17;99526.13;;;11.91;69.94
70103;BME280;57470;50.034;15.256;2023-02-20T13:06:26;99523.66;;;12.25;68.82
70103;BME280;57470;50.034;15.256;2023-02-20T13:08:59;99525.13;;;12.29;70.20
70103;BME280;57470;50.034;15.256;2023-02-20T13:11:32;99524.94;;;12.19;69.93
70103;BME280;57470;50.034;15.256;2023-02-20T13:16:47;99525.31;;;12.15;69.09
70103;BME280;57470;50.034;15.256;2023-02-20T13:19:22;99519.84;;;11.92;69.95
70103;BME280;57470;50.034;15.256;2023-02-20T13:21:49;99509.97;;;11.82;70.29
70103;BME280;57470;50.034;15.256;2023-02-20T13:26:49;99512.88;;;12.02;69.71
70103;BME280;57470;50.034;15.256;2023-02-20T13:29:21;99513.81;;;12.01;69.84
70103;BME280;57470;50.034;15.256;2023-02-20T13:31:52;99509.09;;;11.81;69.52
70103;BME280;57470;50.034;15.256;2023-02-20T13:36:49;99506.50;;;11.92;70.29
70103;BME280;57470;50.034;15.256;2023-02-20T13:41:57;99483.78;;;11.63;70.71
70103;BME280;57470;50.034;15.256;2023-02-20T13:44:39;99478.88;;;11.57;70.41
70103;BME280;57470;50.034;15.256;2023-02-20T13:52:35;99471.16;;;11.54;69.44
70103;BME280;57470;50.034;15.256;2023-02-20T13:55:13;99473.91;;;11.52;70.20
70103;BME280;57470;50.034;15.256;2023-02-20T13:57:53;99470.69;;;11.60;69.96
70103;BME280;57470;50.034;15.256;2023-02-20T14:03:28;99452.78;;;11.62;69.66
70103;BME280;57470;50.034;15.256;2023-02-20T14:06:17;99449.09;;;11.52;70.42
70103;BME280;57470;50.034;15.256;2023-02-20T14:08:44;99443.41;;;11.56;70.64
70103;BME280;57470;50.034;15.256;2023-02-20T14:11:30;99441.16;;;11.63;70.24
70103;BME280;57470;50.034;15.256;2023-02-20T14:13:57;99445.16;;;11.45;70.35
70103;BME280;57470;50.034;15.256;2023-02-20T14:16:28;99444.84;;;11.37;70.83
70103;BME280;57470;50.034;15.256;2023-02-20T14:19:02;99443.00;;;11.50;71.79
70103;BME280;57470;50.034;15.256;2023-02-20T14:21:32;99433.22;;;11.50;71.08
70103;BME280;57470;50.034;15.256;2023-02-20T14:24:22;99432.28;;;11.39;71.32
70103;BME280;57470;50.034;15.256;2023-02-20T14:26:49;99423.13;;;11.43;71.66
70103;BME280;57470;50.034;15.256;2023-02-20T14:29:33;99427.50;;;11.44;70.64
70103;BME280;57470;50.034;15.256;2023-02-20T14:32:02;99415.03;;;11.44;70.64
70103;BME280;57470;50.034;15.256;2023-02-20T14:34:30;99418.34;;;11.35;71.03
70103;BME280;57470;50.034;15.256;2023-02-20T14:37:18;99405.47;;;11.29;70.69
70103;BME280;57470;50.034;15.256;2023-02-20T14:39:54;99404.63;;;11.28;71.10
70103;BME280;57470;50.034;15.256;2023-02-20T14:42:24;99394.91;;;11.27;71.85
70103;BME280;57470;50.034;15.256;2023-02-20T14:44:58;99394.13;;;11.14;71.62
70103;BME280;57470;50.034;15.256;2023-02-20T14:47:25;99395.91;;;11.26;70.93
70103;BME280;57470;50.034;15.256;2023-02-20T14:49:50;99395.75;;;11.41;71.84